sensor_id;sensor_type;location;lat;lon;timestamp;P1;durP1;ratioP1;P2;durP2;ratioP2
13685;SDS011;6915;48.296;8.874;2022-07-23T00:00:18;7.30;;;6.60;;
13685;SDS011;6915;48.296;8.874;2022-07-23T00:02:46;7.47;;;6.78;;
13685;SDS011;6915;48.296;8.874;2022-07-23T00:05:15;7.03;;;6.38;;
13685;SDS011;6915;48.296;8.874;2022-07-23T00:07:42;7.18;;;6.47;;
13685;SDS011;6915;48.296;8.874;2022-07-23T00:10:09;7.40;;;6.70;;
13685;SDS011;6915;48.296;8.874;2022-07-23T00:12:36;6.80;;;6.25;;
13685;SDS011;6915;48.296;8.874;2022-07-23T00:15:05;7.60;;;6.70;;
13685;SDS011;6915;48.296;8.874;2022-07-23T00:17:33;6.63;;;6.05;;
13685;SDS011;6915;48.296;8.874;2022-07-23T00:20:00;6.68;;;6.07;;
13685;SDS011;6915;48.296;8.874;2022-07-23T00:22:28;6.50;;;6.00;;
13685;SDS011;6915;48.296;8.874;2022-07-23T00:24:55;6.50;;;6.00;;
13685;SDS011;6915;48.296;8.874;2022-07-23T00:27:22;6.57;;;5.97;;
13685;SDS011;6915;48.296;8.874;2022-07-23T00:29:50;6.57;;;6.07;;
13685;SDS011;6915;48.296;8.874;2022-07-23T00:32:16;7.18;;;6.65;;
13685;SDS011;6915;48.296;8.874;2022-07-23T00:34:43;6.20;;;5.72;;
13685;SDS011;6915;48.296;8.874;2022-07-23T00:37:10;6.53;;;5.95;;
13685;SDS011;6915;48.296;8.874;2022-07-23T00:39:39;6.40;;;5.90;;
13685;SDS011;6915;48.296;8.874;2022-07-23T00:42:06;6.60;;;6.00;;
13685;SDS011;6915;48.296;8.874;2022-07-23T00:44:32;6.82;;;6.32;;
13685;SDS011;6915;48.296;8.874;2022-07-23T00:46:59;8.10;;;7.30;;
13685;SDS011;6915;48.296;8.874;2022-07-23T00:49:27;7.65;;;6.78;;
13685;SDS011;6915;48.296;8.874;2022-07-23T00:51:55;7.70;;;7.00;;
13685;SDS011;6915;48.296;8.874;2022-07-23T00:54:23;7.68;;;6.93;;
13685;SDS011;6915;48.296;8.874;2022-07-23T00:56:53;8.32;;;7.10;;
13685;SDS011;6915;48.296;8.874;2022-07-23T00:59:20;7.78;;;7.10;;
13685;SDS011;6915;48.296;8.874;2022-07-23T01:01:47;8.07;;;7.28;;
13685;SDS011;6915;48.296;8.874;2022-07-23T01:04:14;8.18;;;7.38;;
13685;SDS011;6915;48.296;8.874;2022-07-23T01:06:42;7.45;;;6.85;;
13685;SDS011;6915;48.296;8.874;2022-07-23T01:09:10;7.35;;;6.43;;
13685;SDS011;6915;48.296;8.874;2022-07-23T01:11:37;7.68;;;6.88;;
13685;SDS011;6915;48.296;8.874;2022-07-23T01:14:09;7.55;;;6.80;;
13685;SDS011;6915;48.296;8.874;2022-07-23T01:16:37;7.40;;;6.78;;
13685;SDS011;6915;48.296;8.874;2022-07-23T01:19:04;7.30;;;6.60;;
13685;SDS011;6915;48.296;8.874;2022-07-23T01:21:32;6.85;;;6.28;;
13685;SDS011;6915;48.296;8.874;2022-07-23T01:24:06;6.30;;;5.80;;
13685;SDS011;6915;48.296;8.874;2022-07-23T01:26:34;7.05;;;6.13;;
13685;SDS011;6915;48.296;8.874;2022-07-23T01:29:01;6.47;;;5.97;;
13685;SDS011;6915;48.296;8.874;2022-07-23T01:31:28;6.65;;;5.75;;
13685;SDS011;6915;48.296;8.874;2022-07-23T01:33:56;5.93;;;5.50;;
13685;SDS011;6915;48.296;8.874;2022-07-23T01:36:23;5.68;;;5.20;;
13685;SDS011;6915;48.296;8.874;2022-07-23T01:38:50;6.35;;;5.70;;
13685;SDS011;6915;48.296;8.874;2022-07-23T01:41:18;6.05;;;5.53;;
13685;SDS011;6915;48.296;8.874;2022-07-23T01:43:45;5.95;;;5.53;;
13685;SDS011;6915;48.296;8.874;2022-07-23T01:46:12;5.63;;;5.13;;
13685;SDS011;6915;48.296;8.874;2022-07-23T01:48:40;6.00;;;5.50;;
13685;SDS011;6915;48.296;8.874;2022-07-23T01:51:07;6.07;;;5.38;;
13685;SDS011;6915;48.296;8.874;2022-07-23T01:53:34;5.63;;;5.13;;
13685;SDS011;6915;48.296;8.874;2022-07-23T01:56:01;5.57;;;4.95;;
13685;SDS011;6915;48.296;8.874;2022-07-23T01:58:29;5.68;;;5.22;;
13685;SDS011;6915;48.296;8.874;2022-07-23T02:00:57;5.45;;;5.05;;
13685;SDS011;6915;48.296;8.874;2022-07-23T02:03:24;5.90;;;5.40;;
13685;SDS011;6915;48.296;8.874;2022-07-23T02:05:52;5.18;;;4.68;;
13685;SDS011;6915;48.296;8.874;2022-07-23T02:08:18;5.50;;;5.00;;
13685;SDS011;6915;48.296;8.874;2022-07-23T02:10:45;5.45;;;4.95;;
13685;SDS011;6915;48.296;8.874;2022-07-23T02:13:13;5.22;;;4.82;;
13685;SDS011;6915;48.296;8.874;2022-07-23T02:15:42;5.80;;;5.30;;
13685;SDS011;6915;48.296;8.874;2022-07-23T02:18:09;5.80;;;5.30;;
13685;SDS011;6915;48.296;8.874;2022-07-23T02:20:36;6.22;;;4.78;;
13685;SDS011;6915;48.296;8.874;2022-07-23T02:23:03;5.65;;;5.00;;
13685;SDS011;6915;48.296;8.874;2022-07-23T02:25:31;5.20;;;4.80;;
13685;SDS011;6915;48.296;8.874;2022-07-23T02:27:58;6.18;;;4.60;;
13685;SDS011;6915;48.296;8.874;2022-07-23T02:30:25;4.60;;;4.30;;
13685;SDS011;6915;48.296;8.874;2022-07-23T02:32:54;4.68;;;4.28;;
13685;SDS011;6915;48.296;8.874;2022-07-23T02:35:21;4.93;;;4.57;;
13685;SDS011;6915;48.296;8.874;2022-07-23T02:37:48;5.57;;;5.07;;
13685;SDS011;6915;48.296;8.874;2022-07-23T02:40:15;5.40;;;4.90;;
13685;SDS011;6915;48.296;8.874;2022-07-23T02:42:42;5.68;;;5.28;;
13685;SDS011;6915;48.296;8.874;2022-07-23T02:45:09;6.65;;;5.20;;
13685;SDS011;6915;48.296;8.874;2022-07-23T02:47:36;10.70;;;5.93;;
13685;SDS011;6915;48.296;8.874;2022-07-23T02:50:05;6.63;;;5.43;;
13685;SDS011;6915;48.296;8.874;2022-07-23T02:52:32;6.35;;;5.72;;
13685;SDS011;6915;48.296;8.874;2022-07-23T02:54:59;6.55;;;4.88;;
13685;SDS011;6915;48.296;8.874;2022-07-23T02:57:26;6.47;;;5.45;;
13685;SDS011;6915;48.296;8.874;2022-07-23T02:59:53;5.78;;;5.28;;
13685;SDS011;6915;48.296;8.874;2022-07-23T03:02:20;6.55;;;5.32;;
13685;SDS011;6915;48.296;8.874;2022-07-23T03:04:48;5.70;;;5.28;;
13685;SDS011;6915;48.296;8.874;2022-07-23T03:07:16;6.38;;;5.57;;
13685;SDS011;6915;48.296;8.874;2022-07-23T03:09:43;5.95;;;4.93;;
13685;SDS011;6915;48.296;8.874;2022-07-23T03:12:10;5.65;;;5.05;;
13685;SDS011;6915;48.296;8.874;2022-07-23T03:14:37;5.97;;;5.45;;
13685;SDS011;6915;48.296;8.874;2022-07-23T03:17:04;5.85;;;5.20;;
13685;SDS011;6915;48.296;8.874;2022-07-23T03:19:31;6.35;;;5.75;;
13685;SDS011;6915;48.296;8.874;2022-07-23T03:21:58;7.10;;;5.85;;
13685;SDS011;6915;48.296;8.874;2022-07-23T03:24:26;7.75;;;6.25;;
13685;SDS011;6915;48.296;8.874;2022-07-23T03:27:14;6.82;;;6.00;;
13685;SDS011;6915;48.296;8.874;2022-07-23T03:29:41;6.57;;;5.97;;
13685;SDS011;6915;48.296;8.874;2022-07-23T03:32:08;6.53;;;6.03;;
13685;SDS011;6915;48.296;8.874;2022-07-23T03:34:35;6.38;;;5.78;;
13685;SDS011;6915;48.296;8.874;2022-07-23T03:37:02;6.43;;;5.82;;
13685;SDS011;6915;48.296;8.874;2022-07-23T03:39:31;6.68;;;6.00;;
13685;SDS011;6915;48.296;8.874;2022-07-23T03:41:58;5.88;;;5.38;;
13685;SDS011;6915;48.296;8.874;2022-07-23T03:44:25;7.85;;;6.32;;
13685;SDS011;6915;48.296;8.874;2022-07-23T03:46:52;6.65;;;6.05;;
13685;SDS011;6915;48.296;8.874;2022-07-23T03:49:19;7.07;;;6.40;;
13685;SDS011;6915;48.296;8.874;2022-07-23T03:51:46;6.50;;;6.00;;
13685;SDS011;6915;48.296;8.874;2022-07-23T03:54:13;5.93;;;5.47;;
13685;SDS011;6915;48.296;8.874;2022-07-23T03:56:41;6.60;;;6.10;;
13685;SDS011;6915;48.296;8.874;2022-07-23T03:59:09;7.00;;;6.40;;
13685;SDS011;6915;48.296;8.874;2022-07-23T04:01:36;6.82;;;6.32;;
13685;SDS011;6915;48.296;8.874;2022-07-23T04:04:03;6.53;;;5.90;;
13685;SDS011;6915;48.296;8.874;2022-07-23T04:06:30;6.97;;;6.25;;
13685;SDS011;6915;48.296;8.874;2022-07-23T04:08:57;6.65;;;6.13;;
13685;SDS011;6915;48.296;8.874;2022-07-23T04:11:24;6.82;;;6.22;;
13685;SDS011;6915;48.296;8.874;2022-07-23T04:13:53;6.95;;;6.30;;
13685;SDS011;6915;48.296;8.874;2022-07-23T04:16:20;7.43;;;6.72;;
13685;SDS011;6915;48.296;8.874;2022-07-23T04:18:47;6.95;;;6.40;;
13685;SDS011;6915;48.296;8.874;2022-07-23T04:21:14;7.38;;;6.65;;
13685;SDS011;6915;48.296;8.874;2022-07-23T04:23:41;7.50;;;6.53;;
13685;SDS011;6915;48.296;8.874;2022-07-23T04:26:08;6.97;;;6.40;;
13685;SDS011;6915;48.296;8.874;2022-07-23T04:28:35;7.75;;;6.90;;
13685;SDS011;6915;48.296;8.874;2022-07-23T04:31:03;7.55;;;6.80;;
13685;SDS011;6915;48.296;8.874;2022-07-23T04:33:30;8.13;;;7.28;;
13685;SDS011;6915;48.296;8.874;2022-07-23T04:35:57;7.03;;;6.43;;
13685;SDS011;6915;48.296;8.874;2022-07-23T04:38:24;7.30;;;6.63;;
13685;SDS011;6915;48.296;8.874;2022-07-23T04:40:51;7.32;;;6.22;;
13685;SDS011;6915;48.296;8.874;2022-07-23T04:43:18;7.10;;;6.57;;
13685;SDS011;6915;48.296;8.874;2022-07-23T04:45:45;7.03;;;6.43;;
13685;SDS011;6915;48.296;8.874;2022-07-23T04:48:13;7.20;;;6.57;;
13685;SDS011;6915;48.296;8.874;2022-07-23T04:50:40;7.60;;;7.00;;
13685;SDS011;6915;48.296;8.874;2022-07-23T04:53:08;7.10;;;6.35;;
13685;SDS011;6915;48.296;8.874;2022-07-23T04:55:35;7.05;;;6.43;;
13685;SDS011;6915;48.296;8.874;2022-07-23T04:58:02;6.90;;;6.30;;
13685;SDS011;6915;48.296;8.874;2022-07-23T05:00:29;6.43;;;5.82;;
13685;SDS011;6915;48.296;8.874;2022-07-23T05:02:56;6.45;;;5.95;;
13685;SDS011;6915;48.296;8.874;2022-07-23T05:05:24;6.90;;;6.30;;
13685;SDS011;6915;48.296;8.874;2022-07-23T05:07:51;6.40;;;5.90;;
13685;SDS011;6915;48.296;8.874;2022-07-23T05:10:18;7.00;;;5.80;;
13685;SDS011;6915;48.296;8.874;2022-07-23T05:12:45;6.65;;;6.00;;
13685;SDS011;6915;48.296;8.874;2022-07-23T05:15:12;6.63;;;6.03;;
13685;SDS011;6915;48.296;8.874;2022-07-23T05:17:39;6.93;;;6.22;;
13685;SDS011;6915;48.296;8.874;2022-07-23T05:20:06;6.07;;;5.57;;
13685;SDS011;6915;48.296;8.874;2022-07-23T05:22:35;6.18;;;5.60;;
13685;SDS011;6915;48.296;8.874;2022-07-23T05:25:02;6.25;;;5.60;;
13685;SDS011;6915;48.296;8.874;2022-07-23T05:27:29;7.32;;;5.90;;
13685;SDS011;6915;48.296;8.874;2022-07-23T05:29:56;5.80;;;5.30;;
13685;SDS011;6915;48.296;8.874;2022-07-23T05:32:23;5.70;;;5.30;;
13685;SDS011;6915;48.296;8.874;2022-07-23T05:34:50;6.85;;;6.07;;
13685;SDS011;6915;48.296;8.874;2022-07-23T05:37:17;6.47;;;5.97;;
13685;SDS011;6915;48.296;8.874;2022-07-23T05:39:46;6.40;;;5.90;;
13685;SDS011;6915;48.296;8.874;2022-07-23T05:42:13;6.32;;;5.82;;
13685;SDS011;6915;48.296;8.874;2022-07-23T05:44:40;6.38;;;5.88;;
13685;SDS011;6915;48.296;8.874;2022-07-23T05:47:07;6.10;;;5.53;;
13685;SDS011;6915;48.296;8.874;2022-07-23T05:49:34;6.20;;;5.65;;
13685;SDS011;6915;48.296;8.874;2022-07-23T05:52:03;9.70;;;6.93;;
13685;SDS011;6915;48.296;8.874;2022-07-23T05:54:31;6.18;;;5.68;;
13685;SDS011;6915;48.296;8.874;2022-07-23T05:57:01;6.53;;;5.93;;
13685;SDS011;6915;48.296;8.874;2022-07-23T05:59:28;6.50;;;6.03;;
13685;SDS011;6915;48.296;8.874;2022-07-23T06:01:55;6.65;;;6.13;;
13685;SDS011;6915;48.296;8.874;2022-07-23T06:04:22;6.85;;;6.35;;
13685;SDS011;6915;48.296;8.874;2022-07-23T06:06:49;7.22;;;6.57;;
13685;SDS011;6915;48.296;8.874;2022-07-23T06:09:16;7.32;;;6.63;;
13685;SDS011;6915;48.296;8.874;2022-07-23T06:11:43;7.18;;;6.60;;
13685;SDS011;6915;48.296;8.874;2022-07-23T06:14:11;7.10;;;6.50;;
13685;SDS011;6915;48.296;8.874;2022-07-23T06:16:38;7.05;;;6.35;;
13685;SDS011;6915;48.296;8.874;2022-07-23T06:19:05;7.07;;;6.45;;
13685;SDS011;6915;48.296;8.874;2022-07-23T06:21:32;6.30;;;5.90;;
13685;SDS011;6915;48.296;8.874;2022-07-23T06:23:59;6.47;;;5.93;;
13685;SDS011;6915;48.296;8.874;2022-07-23T06:26:26;7.00;;;6.40;;
13685;SDS011;6915;48.296;8.874;2022-07-23T06:28:53;6.97;;;6.47;;
13685;SDS011;6915;48.296;8.874;2022-07-23T06:31:21;6.40;;;5.82;;
13685;SDS011;6915;48.296;8.874;2022-07-23T06:33:48;7.30;;;6.70;;
13685;SDS011;6915;48.296;8.874;2022-07-23T06:36:15;6.85;;;6.35;;
13685;SDS011;6915;48.296;8.874;2022-07-23T06:38:42;6.72;;;6.13;;
13685;SDS011;6915;48.296;8.874;2022-07-23T06:41:09;7.40;;;6.68;;
13685;SDS011;6915;48.296;8.874;2022-07-23T06:43:36;7.05;;;6.50;;
13685;SDS011;6915;48.296;8.874;2022-07-23T06:46:03;8.57;;;6.53;;
13685;SDS011;6915;48.296;8.874;2022-07-23T06:48:31;7.50;;;6.82;;
13685;SDS011;6915;48.296;8.874;2022-07-23T06:50:59;7.13;;;6.57;;
13685;SDS011;6915;48.296;8.874;2022-07-23T06:53:26;6.80;;;6.20;;
13685;SDS011;6915;48.296;8.874;2022-07-23T06:55:53;7.68;;;7.07;;
13685;SDS011;6915;48.296;8.874;2022-07-23T06:58:20;7.20;;;6.60;;
13685;SDS011;6915;48.296;8.874;2022-07-23T07:00:47;6.80;;;6.20;;
13685;SDS011;6915;48.296;8.874;2022-07-23T07:03:16;7.65;;;6.35;;
13685;SDS011;6915;48.296;8.874;2022-07-23T07:05:44;6.53;;;5.95;;
13685;SDS011;6915;48.296;8.874;2022-07-23T07:08:11;5.82;;;5.32;;
13685;SDS011;6915;48.296;8.874;2022-07-23T07:10:38;6.35;;;5.85;;
13685;SDS011;6915;48.296;8.874;2022-07-23T07:13:05;7.63;;;6.07;;
13685;SDS011;6915;48.296;8.874;2022-07-23T07:15:32;6.18;;;5.57;;
13685;SDS011;6915;48.296;8.874;2022-07-23T07:17:59;6.45;;;5.95;;
13685;SDS011;6915;48.296;8.874;2022-07-23T07:20:26;6.22;;;5.82;;
13685;SDS011;6915;48.296;8.874;2022-07-23T07:22:54;6.25;;;5.65;;
13685;SDS011;6915;48.296;8.874;2022-07-23T07:25:21;6.43;;;5.80;;
13685;SDS011;6915;48.296;8.874;2022-07-23T07:27:48;6.72;;;6.13;;
13685;SDS011;6915;48.296;8.874;2022-07-23T07:30:15;6.63;;;6.03;;
13685;SDS011;6915;48.296;8.874;2022-07-23T07:32:42;6.70;;;6.20;;
13685;SDS011;6915;48.296;8.874;2022-07-23T07:35:09;6.50;;;5.88;;
13685;SDS011;6915;48.296;8.874;2022-07-23T07:37:36;6.53;;;5.97;;
13685;SDS011;6915;48.296;8.874;2022-07-23T07:40:05;6.35;;;5.75;;
13685;SDS011;6915;48.296;8.874;2022-07-23T07:42:33;6.78;;;6.13;;
13685;SDS011;6915;48.296;8.874;2022-07-23T07:45:00;6.75;;;6.18;;
13685;SDS011;6915;48.296;8.874;2022-07-23T07:47:27;7.35;;;6.63;;
13685;SDS011;6915;48.296;8.874;2022-07-23T07:49:54;8.30;;;6.57;;
13685;SDS011;6915;48.296;8.874;2022-07-23T07:52:21;7.13;;;6.43;;
13685;SDS011;6915;48.296;8.874;2022-07-23T07:54:48;6.78;;;6.28;;
13685;SDS011;6915;48.296;8.874;2022-07-23T07:57:16;7.10;;;6.40;;
13685;SDS011;6915;48.296;8.874;2022-07-23T07:59:43;7.32;;;6.32;;
13685;SDS011;6915;48.296;8.874;2022-07-23T08:04:39;6.57;;;6.07;;
13685;SDS011;6915;48.296;8.874;2022-07-23T08:07:06;8.27;;;6.40;;
13685;SDS011;6915;48.296;8.874;2022-07-23T08:09:33;7.15;;;6.55;;
13685;SDS011;6915;48.296;8.874;2022-07-23T08:12:00;6.45;;;5.85;;
13685;SDS011;6915;48.296;8.874;2022-07-23T08:14:28;6.60;;;6.10;;
13685;SDS011;6915;48.296;8.874;2022-07-23T08:16:55;6.85;;;6.20;;
13685;SDS011;6915;48.296;8.874;2022-07-23T08:19:22;7.18;;;6.03;;
13685;SDS011;6915;48.296;8.874;2022-07-23T08:21:49;6.28;;;5.78;;
13685;SDS011;6915;48.296;8.874;2022-07-23T08:24:16;6.20;;;5.70;;
13685;SDS011;6915;48.296;8.874;2022-07-23T08:26:43;6.40;;;5.90;;
13685;SDS011;6915;48.296;8.874;2022-07-23T08:29:10;7.07;;;6.38;;
13685;SDS011;6915;48.296;8.874;2022-07-23T08:31:38;6.38;;;5.88;;
13685;SDS011;6915;48.296;8.874;2022-07-23T08:34:05;6.03;;;5.55;;
13685;SDS011;6915;48.296;8.874;2022-07-23T08:36:32;6.30;;;5.80;;
13685;SDS011;6915;48.296;8.874;2022-07-23T08:38:59;6.57;;;6.00;;
13685;SDS011;6915;48.296;8.874;2022-07-23T08:41:28;6.78;;;6.28;;
13685;SDS011;6915;48.296;8.874;2022-07-23T08:43:55;6.95;;;6.35;;
13685;SDS011;6915;48.296;8.874;2022-07-23T08:46:25;6.68;;;6.07;;
13685;SDS011;6915;48.296;8.874;2022-07-23T08:48:55;6.95;;;6.40;;
13685;SDS011;6915;48.296;8.874;2022-07-23T08:51:23;6.57;;;5.97;;
13685;SDS011;6915;48.296;8.874;2022-07-23T08:53:53;7.00;;;6.38;;
13685;SDS011;6915;48.296;8.874;2022-07-23T08:56:22;6.28;;;5.68;;
13685;SDS011;6915;48.296;8.874;2022-07-23T08:58:49;6.20;;;5.70;;
13685;SDS011;6915;48.296;8.874;2022-07-23T09:01:16;5.88;;;5.40;;
13685;SDS011;6915;48.296;8.874;2022-07-23T09:03:43;6.07;;;5.57;;
13685;SDS011;6915;48.296;8.874;2022-07-23T09:06:12;6.03;;;5.53;;
13685;SDS011;6915;48.296;8.874;2022-07-23T09:08:40;5.85;;;5.47;;
13685;SDS011;6915;48.296;8.874;2022-07-23T09:11:08;6.20;;;5.70;;
13685;SDS011;6915;48.296;8.874;2022-07-23T09:13:37;5.95;;;5.55;;
13685;SDS011;6915;48.296;8.874;2022-07-23T09:16:08;6.22;;;5.72;;
13685;SDS011;6915;48.296;8.874;2022-07-23T09:18:39;6.50;;;6.00;;
13685;SDS011;6915;48.296;8.874;2022-07-23T09:21:13;6.30;;;5.75;;
13685;SDS011;6915;48.296;8.874;2022-07-23T09:23:45;6.10;;;5.70;;
13685;SDS011;6915;48.296;8.874;2022-07-23T09:26:21;6.15;;;5.65;;
13685;SDS011;6915;48.296;8.874;2022-07-23T09:29:02;6.68;;;6.07;;
13685;SDS011;6915;48.296;8.874;2022-07-23T09:31:32;6.55;;;5.95;;
13685;SDS011;6915;48.296;8.874;2022-07-23T09:34:08;6.22;;;5.68;;
13685;SDS011;6915;48.296;8.874;2022-07-23T09:36:38;6.15;;;5.63;;
13685;SDS011;6915;48.296;8.874;2022-07-23T09:39:05;6.20;;;5.60;;
13685;SDS011;6915;48.296;8.874;2022-07-23T09:41:37;6.90;;;6.20;;
13685;SDS011;6915;48.296;8.874;2022-07-23T09:44:06;6.68;;;6.07;;
13685;SDS011;6915;48.296;8.874;2022-07-23T09:46:34;8.70;;;6.20;;
13685;SDS011;6915;48.296;8.874;2022-07-23T09:49:10;6.72;;;6.13;;
13685;SDS011;6915;48.296;8.874;2022-07-23T09:51:47;6.32;;;5.82;;
13685;SDS011;6915;48.296;8.874;2022-07-23T09:54:27;6.28;;;5.80;;
13685;SDS011;6915;48.296;8.874;2022-07-23T09:56:58;7.25;;;6.65;;
13685;SDS011;6915;48.296;8.874;2022-07-23T09:59:27;6.47;;;5.97;;
13685;SDS011;6915;48.296;8.874;2022-07-23T10:01:56;6.75;;;6.20;;
13685;SDS011;6915;48.296;8.874;2022-07-23T10:04:25;6.47;;;5.97;;
13685;SDS011;6915;48.296;8.874;2022-07-23T10:06:55;6.60;;;6.18;;
13685;SDS011;6915;48.296;8.874;2022-07-23T10:09:24;8.05;;;6.47;;
13685;SDS011;6915;48.296;8.874;2022-07-23T10:11:55;6.47;;;5.97;;
13685;SDS011;6915;48.296;8.874;2022-07-23T10:14:52;6.03;;;5.53;;
13685;SDS011;6915;48.296;8.874;2022-07-23T10:17:19;7.38;;;6.65;;
13685;SDS011;6915;48.296;8.874;2022-07-23T10:19:46;6.63;;;6.03;;
13685;SDS011;6915;48.296;8.874;2022-07-23T10:22:17;6.80;;;6.20;;
13685;SDS011;6915;48.296;8.874;2022-07-23T10:24:48;6.82;;;6.22;;
13685;SDS011;6915;48.296;8.874;2022-07-23T10:30:18;5.82;;;5.32;;
13685;SDS011;6915;48.296;8.874;2022-07-23T10:32:53;6.60;;;6.00;;
13685;SDS011;6915;48.296;8.874;2022-07-23T10:35:29;6.20;;;5.70;;
13685;SDS011;6915;48.296;8.874;2022-07-23T10:38:07;6.50;;;6.03;;
13685;SDS011;6915;48.296;8.874;2022-07-23T10:40:39;6.60;;;6.03;;
13685;SDS011;6915;48.296;8.874;2022-07-23T10:43:20;7.00;;;6.40;;
13685;SDS011;6915;48.296;8.874;2022-07-23T10:45:47;6.40;;;5.80;;
13685;SDS011;6915;48.296;8.874;2022-07-23T10:48:15;6.80;;;6.20;;
13685;SDS011;6915;48.296;8.874;2022-07-23T10:50:43;7.10;;;6.40;;
13685;SDS011;6915;48.296;8.874;2022-07-23T10:53:44;6.70;;;6.10;;
13685;SDS011;6915;48.296;8.874;2022-07-23T10:59:20;6.47;;;6.00;;
13685;SDS011;6915;48.296;8.874;2022-07-23T11:01:47;7.47;;;6.70;;
13685;SDS011;6915;48.296;8.874;2022-07-23T11:04:15;6.78;;;6.18;;
13685;SDS011;6915;48.296;8.874;2022-07-23T11:09:42;6.97;;;6.38;;
13685;SDS011;6915;48.296;8.874;2022-07-23T11:15:02;6.20;;;5.70;;
13685;SDS011;6915;48.296;8.874;2022-07-23T11:17:31;7.18;;;6.55;;
13685;SDS011;6915;48.296;8.874;2022-07-23T11:20:21;7.05;;;6.50;;
13685;SDS011;6915;48.296;8.874;2022-07-23T11:22:50;7.43;;;6.57;;
13685;SDS011;6915;48.296;8.874;2022-07-23T11:25:35;7.05;;;6.45;;
13685;SDS011;6915;48.296;8.874;2022-07-23T11:28:13;6.60;;;6.10;;
13685;SDS011;6915;48.296;8.874;2022-07-23T11:30:42;6.50;;;6.00;;
13685;SDS011;6915;48.296;8.874;2022-07-23T11:33:17;6.60;;;6.10;;
13685;SDS011;6915;48.296;8.874;2022-07-23T11:35:46;6.28;;;5.80;;
13685;SDS011;6915;48.296;8.874;2022-07-23T11:38:15;6.43;;;5.93;;
13685;SDS011;6915;48.296;8.874;2022-07-23T11:40:48;7.22;;;6.50;;
13685;SDS011;6915;48.296;8.874;2022-07-23T11:43:16;6.13;;;5.70;;
13685;SDS011;6915;48.296;8.874;2022-07-23T11:45:44;6.75;;;6.10;;
13685;SDS011;6915;48.296;8.874;2022-07-23T11:48:16;6.20;;;5.70;;
13685;SDS011;6915;48.296;8.874;2022-07-23T11:50:45;6.30;;;5.80;;
13685;SDS011;6915;48.296;8.874;2022-07-23T11:53:16;6.38;;;5.95;;
13685;SDS011;6915;48.296;8.874;2022-07-23T11:55:49;6.72;;;6.22;;
13685;SDS011;6915;48.296;8.874;2022-07-23T11:58:16;6.25;;;5.75;;
13685;SDS011;6915;48.296;8.874;2022-07-23T12:00:43;7.00;;;6.30;;
13685;SDS011;6915;48.296;8.874;2022-07-23T12:03:11;6.28;;;5.78;;
13685;SDS011;6915;48.296;8.874;2022-07-23T12:05:38;6.38;;;5.78;;
13685;SDS011;6915;48.296;8.874;2022-07-23T12:08:06;6.72;;;6.18;;
13685;SDS011;6915;48.296;8.874;2022-07-23T12:10:36;6.70;;;6.10;;
13685;SDS011;6915;48.296;8.874;2022-07-23T12:13:09;6.20;;;5.70;;
13685;SDS011;6915;48.296;8.874;2022-07-23T12:15:38;6.70;;;6.15;;
13685;SDS011;6915;48.296;8.874;2022-07-23T12:18:08;6.60;;;6.05;;
13685;SDS011;6915;48.296;8.874;2022-07-23T12:20:36;6.68;;;6.07;;
13685;SDS011;6915;48.296;8.874;2022-07-23T12:23:05;6.50;;;5.90;;
13685;SDS011;6915;48.296;8.874;2022-07-23T12:25:34;6.45;;;5.90;;
13685;SDS011;6915;48.296;8.874;2022-07-23T12:28:03;6.65;;;5.70;;
13685;SDS011;6915;48.296;8.874;2022-07-23T12:30:34;7.45;;;6.65;;
13685;SDS011;6915;48.296;8.874;2022-07-23T12:33:05;7.60;;;7.00;;
13685;SDS011;6915;48.296;8.874;2022-07-23T12:35:34;6.25;;;5.75;;
13685;SDS011;6915;48.296;8.874;2022-07-23T12:38:04;5.95;;;5.45;;
13685;SDS011;6915;48.296;8.874;2022-07-23T12:40:34;6.18;;;5.72;;
13685;SDS011;6915;48.296;8.874;2022-07-23T12:43:03;6.30;;;5.80;;
13685;SDS011;6915;48.296;8.874;2022-07-23T12:45:44;6.18;;;5.78;;
13685;SDS011;6915;48.296;8.874;2022-07-23T12:48:15;6.10;;;5.70;;
13685;SDS011;6915;48.296;8.874;2022-07-23T12:50:48;6.30;;;5.75;;
13685;SDS011;6915;48.296;8.874;2022-07-23T12:53:20;5.97;;;5.47;;
13685;SDS011;6915;48.296;8.874;2022-07-23T12:55:49;6.60;;;6.10;;
13685;SDS011;6915;48.296;8.874;2022-07-23T12:58:22;6.50;;;5.90;;
13685;SDS011;6915;48.296;8.874;2022-07-23T13:01:02;6.25;;;5.85;;
13685;SDS011;6915;48.296;8.874;2022-07-23T13:03:31;6.18;;;5.65;;
13685;SDS011;6915;48.296;8.874;2022-07-23T13:06:01;6.35;;;5.80;;
13685;SDS011;6915;48.296;8.874;2022-07-23T13:08:31;6.63;;;6.10;;
13685;SDS011;6915;48.296;8.874;2022-07-23T13:10:59;6.13;;;5.70;;
13685;SDS011;6915;48.296;8.874;2022-07-23T13:13:27;6.63;;;6.03;;
13685;SDS011;6915;48.296;8.874;2022-07-23T13:15:56;6.25;;;5.70;;
13685;SDS011;6915;48.296;8.874;2022-07-23T13:18:26;6.40;;;5.85;;
13685;SDS011;6915;48.296;8.874;2022-07-23T13:20:54;6.43;;;5.82;;
13685;SDS011;6915;48.296;8.874;2022-07-23T13:23:21;6.80;;;6.20;;
13685;SDS011;6915;48.296;8.874;2022-07-23T13:25:49;6.30;;;5.70;;
13685;SDS011;6915;48.296;8.874;2022-07-23T13:28:17;6.63;;;6.07;;
13685;SDS011;6915;48.296;8.874;2022-07-23T13:30:45;6.43;;;5.93;;
13685;SDS011;6915;48.296;8.874;2022-07-23T13:33:14;6.80;;;6.22;;
13685;SDS011;6915;48.296;8.874;2022-07-23T13:35:43;6.40;;;5.90;;
13685;SDS011;6915;48.296;8.874;2022-07-23T13:38:10;6.75;;;6.25;;
13685;SDS011;6915;48.296;8.874;2022-07-23T13:40:38;6.10;;;5.70;;
13685;SDS011;6915;48.296;8.874;2022-07-23T13:43:07;6.10;;;5.70;;
13685;SDS011;6915;48.296;8.874;2022-07-23T13:45:35;6.25;;;5.78;;
13685;SDS011;6915;48.296;8.874;2022-07-23T13:48:03;5.97;;;5.47;;
13685;SDS011;6915;48.296;8.874;2022-07-23T13:50:31;6.13;;;5.72;;
13685;SDS011;6915;48.296;8.874;2022-07-23T13:53:02;5.72;;;5.22;;
13685;SDS011;6915;48.296;8.874;2022-07-23T13:55:30;6.75;;;6.22;;
13685;SDS011;6915;48.296;8.874;2022-07-23T13:57:57;6.78;;;6.28;;
13685;SDS011;6915;48.296;8.874;2022-07-23T14:00:24;6.13;;;5.63;;
13685;SDS011;6915;48.296;8.874;2022-07-23T14:02:51;8.23;;;6.15;;
13685;SDS011;6915;48.296;8.874;2022-07-23T14:05:19;6.45;;;5.95;;
13685;SDS011;6915;48.296;8.874;2022-07-23T14:07:46;7.47;;;6.43;;
13685;SDS011;6915;48.296;8.874;2022-07-23T14:10:16;6.55;;;6.05;;
13685;SDS011;6915;48.296;8.874;2022-07-23T14:12:43;6.47;;;5.97;;
13685;SDS011;6915;48.296;8.874;2022-07-23T14:15:10;6.18;;;5.75;;
13685;SDS011;6915;48.296;8.874;2022-07-23T14:17:38;6.80;;;6.10;;
13685;SDS011;6915;48.296;8.874;2022-07-23T14:20:06;6.47;;;5.93;;
13685;SDS011;6915;48.296;8.874;2022-07-23T14:22:34;6.20;;;5.70;;
13685;SDS011;6915;48.296;8.874;2022-07-23T14:25:01;6.18;;;5.75;;
13685;SDS011;6915;48.296;8.874;2022-07-23T14:27:31;7.85;;;5.80;;
13685;SDS011;6915;48.296;8.874;2022-07-23T14:29:58;5.75;;;5.25;;
13685;SDS011;6915;48.296;8.874;2022-07-23T14:32:25;5.95;;;5.45;;
13685;SDS011;6915;48.296;8.874;2022-07-23T14:34:52;6.28;;;5.68;;
13685;SDS011;6915;48.296;8.874;2022-07-23T14:37:19;6.22;;;5.72;;
13685;SDS011;6915;48.296;8.874;2022-07-23T14:39:47;6.18;;;5.75;;
13685;SDS011;6915;48.296;8.874;2022-07-23T14:42:14;6.45;;;6.05;;
13685;SDS011;6915;48.296;8.874;2022-07-23T14:44:42;6.18;;;5.63;;
13685;SDS011;6915;48.296;8.874;2022-07-23T14:47:09;6.85;;;6.30;;
13685;SDS011;6915;48.296;8.874;2022-07-23T14:49:36;5.97;;;5.47;;
13685;SDS011;6915;48.296;8.874;2022-07-23T14:52:06;5.50;;;5.07;;
13685;SDS011;6915;48.296;8.874;2022-07-23T14:54:34;5.60;;;5.13;;
13685;SDS011;6915;48.296;8.874;2022-07-23T14:57:06;5.68;;;5.22;;
13685;SDS011;6915;48.296;8.874;2022-07-23T14:59:34;6.25;;;5.57;;
13685;SDS011;6915;48.296;8.874;2022-07-23T15:02:04;5.85;;;5.35;;
13685;SDS011;6915;48.296;8.874;2022-07-23T15:04:33;6.47;;;5.63;;
13685;SDS011;6915;48.296;8.874;2022-07-23T15:07:00;6.22;;;5.80;;
13685;SDS011;6915;48.296;8.874;2022-07-23T15:09:27;6.05;;;5.55;;
13685;SDS011;6915;48.296;8.874;2022-07-23T15:11:54;6.28;;;5.68;;
13685;SDS011;6915;48.296;8.874;2022-07-23T15:14:21;6.30;;;5.82;;
13685;SDS011;6915;48.296;8.874;2022-07-23T15:16:48;6.32;;;5.70;;
13685;SDS011;6915;48.296;8.874;2022-07-23T15:19:16;6.75;;;6.03;;
13685;SDS011;6915;48.296;8.874;2022-07-23T15:21:43;5.93;;;5.30;;